createdAt,value
2023-05-19T00:01:19.181Z,91314.69
2023-05-19T00:03:52.813Z,91313.81
2023-05-19T00:06:26.930Z,91311.63
2023-05-19T00:08:57.843Z,91311.22
2023-05-19T00:11:27.040Z,91306.22
2023-05-19T00:13:55.562Z,91307.47
2023-05-19T00:16:23.316Z,91298.84
2023-05-19T00:18:50.321Z,91296.28
2023-05-19T00:21:17.425Z,91297.69
2023-05-19T00:23:44.167Z,91301.47
2023-05-19T00:26:12.204Z,91292.09
2023-05-19T00:28:39.934Z,91296.19
2023-05-19T00:31:07.350Z,91292.78
2023-05-19T00:33:34.822Z,91296.91
2023-05-19T00:36:03.739Z,91293.94
2023-05-19T00:38:34.862Z,91306.59
2023-05-19T00:41:02.790Z,91301.75
2023-05-19T00:43:34.470Z,91307.97
2023-05-19T00:46:01.506Z,91303.97
2023-05-19T00:48:28.559Z,91307.81
2023-05-19T00:51:04.598Z,91297.41
2023-05-19T00:53:35.228Z,91301.13
2023-05-19T00:56:03.222Z,91298.50
2023-05-19T00:58:32.674Z,91287.63
2023-05-19T01:01:03.875Z,91295.13
2023-05-19T01:03:36.263Z,91286.84
2023-05-19T01:06:08.040Z,91275.53
2023-05-19T01:08:37.376Z,91291.25
2023-05-19T01:11:08.327Z,91287.41
2023-05-19T01:13:36.536Z,91296.06
2023-05-19T01:16:19.268Z,91288.53
2023-05-19T01:19:20.078Z,91289.03
2023-05-19T01:21:53.040Z,91292.41
2023-05-19T01:24:46.864Z,91290.53
2023-05-19T01:27:22.554Z,91294.38
2023-05-19T01:30:07.865Z,91297.69
2023-05-19T01:32:34.995Z,91286.81
2023-05-19T01:35:04.402Z,91281.81
2023-05-19T01:37:31.307Z,91289.28
2023-05-19T01:39:58.364Z,91283.69
2023-05-19T01:42:26.333Z,91292.72
2023-05-19T01:44:54.423Z,91285.88
2023-05-19T01:47:21.532Z,91283.59
2023-05-19T01:49:53.181Z,91283.97
2023-05-19T01:52:19.902Z,91285.25
2023-05-19T01:54:46.653Z,91288.19
2023-05-19T01:57:25.041Z,91292.31
2023-05-19T01:59:57.783Z,91286.78
2023-05-19T02:02:51.588Z,91294.41
2023-05-19T02:05:30.688Z,91296.66
2023-05-19T02:08:24.142Z,91290.56
2023-05-19T02:10:58.113Z,91296.94
2023-05-19T02:13:31.165Z,91294.53
2023-05-19T02:16:04.783Z,91289.03
2023-05-19T02:18:35.417Z,91305.97
2023-05-19T02:21:02.726Z,91298.66
2023-05-19T02:23:29.620Z,91301.66
2023-05-19T02:25:56.376Z,91297.88
2023-05-19T02:28:23.768Z,91294.75
2023-05-19T02:30:50.571Z,91292.53
2023-05-19T02:33:19.368Z,91292.53
2023-05-19T02:35:46.077Z,91308.72
2023-05-19T02:38:12.934Z,91313.56
2023-05-19T02:40:39.705Z,91305.41
2023-05-19T02:43:06.478Z,91309.94
2023-05-19T02:45:33.238Z,91296.00
2023-05-19T02:47:59.922Z,91309.03
2023-05-19T02:50:26.655Z,91308.69
2023-05-19T02:52:54.113Z,91314.66
2023-05-19T02:55:20.790Z,91320.59
2023-05-19T02:57:47.879Z,91320.31
2023-05-19T03:00:15.204Z,91319.22
2023-05-19T03:02:44.066Z,91315.09
2023-05-19T03:05:10.942Z,91315.31
2023-05-19T03:07:37.896Z,91304.16
2023-05-19T03:10:06.688Z,91291.28
2023-05-19T03:12:33.879Z,91286.09
2023-05-19T03:15:01.120Z,91295.81
2023-05-19T03:17:33.799Z,91293.69
2023-05-19T03:20:01.604Z,91304.94
2023-05-19T03:22:28.337Z,91307.16
2023-05-19T03:24:55.122Z,91299.69
2023-05-19T03:27:21.792Z,91302.00
2023-05-19T03:29:48.458Z,91301.81
2023-05-19T03:32:15.576Z,91301.00
2023-05-19T03:34:42.543Z,91314.13
2023-05-19T03:37:10.926Z,91301.84
2023-05-19T03:39:37.625Z,91311.25
2023-05-19T03:42:04.560Z,91298.56
2023-05-19T03:44:31.288Z,91309.03
2023-05-19T03:46:58.047Z,91301.44
2023-05-19T03:49:24.732Z,91312.19
2023-05-19T03:51:51.501Z,91313.63
2023-05-19T03:54:19.101Z,91324.19
2023-05-19T03:56:46.132Z,91322.13
2023-05-19T03:59:13.055Z,91323.84
2023-05-19T04:01:39.754Z,91338.31
2023-05-19T04:04:07.416Z,91330.03
2023-05-19T04:06:34.169Z,91329.16
2023-05-19T04:09:02.460Z,91319.50
2023-05-19T04:11:29.926Z,91337.59
2023-05-19T04:13:56.793Z,91331.63
2023-05-19T04:16:23.749Z,91336.19
2023-05-19T04:18:51.279Z,91334.38
2023-05-19T04:21:18.118Z,91339.38
2023-05-19T04:23:45.218Z,91336.75
2023-05-19T04:26:12.343Z,91334.09
2023-05-19T04:28:42.610Z,91337.75
2023-05-19T04:31:11.159Z,91318.69
2023-05-19T04:33:38.301Z,91341.38
2023-05-19T04:36:08.672Z,91336.78
2023-05-19T04:38:36.895Z,91349.53
2023-05-19T04:41:04.405Z,91357.97
2023-05-19T04:43:31.596Z,91355.00
2023-05-19T04:45:58.540Z,91351.13
2023-05-19T04:48:26.142Z,91363.97
2023-05-19T04:50:53.207Z,91364.53
2023-05-19T04:53:21.764Z,91369.94
2023-05-19T04:55:48.846Z,91374.25
2023-05-19T04:58:17.091Z,91386.09
2023-05-19T05:00:43.828Z,91389.44
2023-05-19T05:03:10.760Z,91397.88
2023-05-19T05:05:37.574Z,91389.31
2023-05-19T05:08:04.428Z,91392.94
2023-05-19T05:10:31.445Z,91394.69
2023-05-19T05:12:58.660Z,91399.50
2023-05-19T05:15:28.657Z,91397.44
2023-05-19T05:17:56.141Z,91395.03
2023-05-19T05:20:23.277Z,91400.47
2023-05-19T05:22:50.195Z,91400.97
2023-05-19T05:25:17.808Z,91405.13
2023-05-19T05:27:44.504Z,91407.69
2023-05-19T05:30:11.454Z,91400.78
2023-05-19T05:32:38.386Z,91411.56
2023-05-19T05:35:05.694Z,91420.22
2023-05-19T05:37:32.432Z,91418.22
2023-05-19T05:39:59.311Z,91422.03
2023-05-19T05:42:28.190Z,91412.94
2023-05-19T05:44:56.244Z,91413.25
2023-05-19T05:47:23.177Z,91429.16
2023-05-19T05:49:51.601Z,91421.72
2023-05-19T05:52:21.307Z,91425.44
2023-05-19T05:54:48.255Z,91425.41
2023-05-19T05:57:15.204Z,91422.94
2023-05-19T05:59:43.232Z,91424.97
2023-05-19T06:02:10.234Z,91437.66
2023-05-19T06:04:42.676Z,91430.25
2023-05-19T06:07:09.585Z,91434.63
2023-05-19T06:09:36.298Z,91451.47
2023-05-19T06:12:03.072Z,91439.72
2023-05-19T06:14:29.802Z,91435.09
2023-05-19T06:16:56.618Z,91439.38
2023-05-19T06:19:25.360Z,91431.47
2023-05-19T06:21:52.266Z,91436.63
2023-05-19T06:24:19.036Z,91431.03
2023-05-19T06:26:45.765Z,91435.03
2023-05-19T06:29:12.490Z,91446.09
2023-05-19T06:31:39.280Z,91447.50
2023-05-19T06:34:06.052Z,91440.09
2023-05-19T06:36:33.174Z,91449.97
2023-05-19T06:39:01.328Z,91456.31
2023-05-19T06:41:29.292Z,91439.72
2023-05-19T06:43:56.597Z,91446.25
2023-05-19T06:46:23.556Z,91446.56
2023-05-19T06:48:50.346Z,91445.28
2023-05-19T06:51:21.760Z,91452.78
2023-05-19T06:53:49.167Z,91454.84
2023-05-19T06:56:16.328Z,91447.03
2023-05-19T06:58:43.096Z,91458.19
2023-05-19T07:01:09.889Z,91461.75
2023-05-19T07:03:37.296Z,91457.97
2023-05-19T07:06:05.757Z,91448.47
2023-05-19T07:08:35.339Z,91454.66
2023-05-19T07:11:02.005Z,91456.25
2023-05-19T07:13:28.671Z,91456.66
2023-05-19T07:15:58.292Z,91457.47
2023-05-19T07:18:25.634Z,91454.06
2023-05-19T07:20:53.816Z,91459.81
2023-05-19T07:23:20.677Z,91456.41
2023-05-19T07:25:47.418Z,91454.25
2023-05-19T07:28:14.193Z,91455.66
2023-05-19T07:30:41.072Z,91460.34
2023-05-19T07:33:08.392Z,91464.38
2023-05-19T07:35:35.149Z,91460.53
2023-05-19T07:38:02.381Z,91455.34
2023-05-19T07:40:31.527Z,91448.47
2023-05-19T07:42:58.883Z,91454.94
2023-05-19T07:45:25.847Z,91457.56
2023-05-19T07:47:54.471Z,91458.31
2023-05-19T07:50:21.299Z,91466.09
2023-05-19T07:52:49.053Z,91461.06
2023-05-19T07:55:16.421Z,91461.25
2023-05-19T07:57:43.133Z,91466.91
2023-05-19T08:00:12.165Z,91461.34
2023-05-19T08:02:38.945Z,91466.69
2023-05-19T08:05:06.101Z,91458.22
2023-05-19T08:07:33.208Z,91460.09
2023-05-19T08:09:59.897Z,91472.81
2023-05-19T08:12:26.716Z,91490.22
2023-05-19T08:14:53.456Z,91484.34
2023-05-19T08:17:20.147Z,91485.53
2023-05-19T08:19:46.859Z,91505.06
2023-05-19T08:22:13.636Z,91502.22
2023-05-19T08:24:42.568Z,91502.06
2023-05-19T08:27:09.342Z,91491.44
2023-05-19T08:29:36.790Z,91487.94
2023-05-19T08:32:05.301Z,91493.88
2023-05-19T08:34:32.897Z,91491.09
2023-05-19T08:36:59.975Z,91500.81
2023-05-19T08:39:27.406Z,91496.47
2023-05-19T08:41:54.665Z,91498.06
2023-05-19T08:44:22.016Z,91501.53
2023-05-19T08:46:49.770Z,91522.41
2023-05-19T08:49:25.585Z,91490.53
2023-05-19T08:51:55.362Z,91509.44
2023-05-19T08:54:27.905Z,91522.13
2023-05-19T08:56:55.314Z,91527.03
2023-05-19T08:59:22.782Z,91522.06
2023-05-19T09:01:51.687Z,91515.66
2023-05-19T09:04:18.634Z,91518.59
2023-05-19T09:06:45.540Z,91508.66
2023-05-19T09:09:12.733Z,91503.88
2023-05-19T09:11:39.493Z,91516.13
2023-05-19T09:14:06.301Z,91500.44
2023-05-19T09:16:34.213Z,91491.28
2023-05-19T09:19:01.460Z,91492.25
2023-05-19T09:21:31.614Z,91507.47
2023-05-19T09:24:03.881Z,91502.56
2023-05-19T09:26:41.305Z,91502.13
2023-05-19T09:29:17.291Z,91498.09
2023-05-19T09:31:55.960Z,91505.22
2023-05-19T09:34:25.042Z,91501.94
2023-05-19T09:36:53.643Z,91504.69
2023-05-19T09:39:23.403Z,91505.19
2023-05-19T09:41:54.796Z,91509.63
2023-05-19T09:44:30.387Z,91508.34
2023-05-19T09:46:58.431Z,91492.41
2023-05-19T09:49:29.024Z,91493.22
2023-05-19T09:51:56.908Z,91496.59
2023-05-19T09:54:24.984Z,91496.91
2023-05-19T09:56:59.386Z,91491.47
2023-05-19T09:59:27.601Z,91482.84
2023-05-19T10:01:57.400Z,91487.97
2023-05-19T10:04:27.123Z,91498.94
2023-05-19T10:06:55.832Z,91515.78
2023-05-19T10:09:27.851Z,91515.75
2023-05-19T10:11:56.279Z,91526.78
2023-05-19T10:14:25.021Z,91528.66
2023-05-19T10:16:53.613Z,91516.50
2023-05-19T10:19:25.723Z,91528.69
2023-05-19T10:21:53.390Z,91526.84
2023-05-19T10:24:21.410Z,91526.25
2023-05-19T10:27:05.745Z,91527.00
2023-05-19T10:29:37.953Z,91517.38
2023-05-19T10:32:11.430Z,91514.72
2023-05-19T10:34:59.738Z,91524.47
2023-05-19T10:38:05.227Z,91510.19
2023-05-19T10:40:39.057Z,91515.69
2023-05-19T10:43:22.157Z,91519.97
2023-05-19T10:45:52.737Z,91508.13
2023-05-19T10:48:24.044Z,91497.91
2023-05-19T10:50:55.249Z,91500.66
2023-05-19T10:53:22.963Z,91489.81
2023-05-19T10:56:04.150Z,91487.28
2023-05-19T10:58:46.166Z,91495.00
2023-05-19T11:01:14.511Z,91520.16
2023-05-19T11:03:53.461Z,91549.47
2023-05-19T11:06:32.053Z,91576.78
2023-05-19T11:09:15.972Z,91551.06
2023-05-19T11:11:47.521Z,91530.16
2023-05-19T11:14:17.598Z,91542.66
2023-05-19T11:16:48.110Z,91544.53
2023-05-19T11:19:35.389Z,91544.91
2023-05-19T11:22:13.545Z,91549.78
2023-05-19T11:24:50.219Z,91540.72
2023-05-19T11:27:31.854Z,91540.44
2023-05-19T11:30:01.969Z,91536.19
2023-05-19T11:32:31.231Z,91525.56
2023-05-19T11:34:58.405Z,91522.25
2023-05-19T11:37:25.621Z,91526.53
2023-05-19T11:39:53.199Z,91517.97
2023-05-19T11:42:20.759Z,91510.84
2023-05-19T11:44:49.074Z,91507.06
2023-05-19T11:47:17.325Z,91511.06
2023-05-19T11:49:52.119Z,91509.06
2023-05-19T11:52:21.278Z,91506.72
2023-05-19T11:54:48.700Z,91510.13
2023-05-19T11:57:15.925Z,91517.38
2023-05-19T11:59:45.795Z,91508.81
2023-05-19T12:02:22.918Z,91514.03
2023-05-19T12:04:49.874Z,91510.72
2023-05-19T12:07:18.353Z,91517.66
2023-05-19T12:09:48.903Z,91509.25
2023-05-19T12:12:21.990Z,91508.16
2023-05-19T12:14:52.791Z,91517.06
2023-05-19T12:17:20.816Z,91510.59
2023-05-19T12:19:49.552Z,91512.22
2023-05-19T12:22:18.034Z,91510.44
2023-05-19T12:24:46.063Z,91503.84
2023-05-19T12:27:19.718Z,91503.75
2023-05-19T12:29:53.837Z,91513.00
2023-05-19T12:32:25.531Z,91501.09
2023-05-19T12:34:53.038Z,91509.66
2023-05-19T12:37:19.896Z,91512.75
2023-05-19T12:39:48.999Z,91512.06
2023-05-19T12:42:16.437Z,91502.00
2023-05-19T12:44:50.140Z,91515.66
2023-05-19T12:47:19.796Z,91514.38
2023-05-19T12:50:04.840Z,91516.91
2023-05-19T12:52:40.676Z,91520.06
2023-05-19T12:55:09.392Z,91512.69
2023-05-19T12:57:37.429Z,91509.59
2023-05-19T13:00:07.074Z,91504.53
2023-05-19T13:02:36.959Z,91509.78
2023-05-19T13:05:04.934Z,91506.31
2023-05-19T13:07:31.763Z,91517.06
2023-05-19T13:09:58.708Z,91513.13
2023-05-19T13:12:26.200Z,91518.41
2023-05-19T13:14:55.428Z,91532.25
2023-05-19T13:17:22.471Z,91530.13
2023-05-19T13:19:49.294Z,91529.50
2023-05-19T13:22:16.028Z,91528.19
2023-05-19T13:24:42.795Z,91533.00
2023-05-19T13:27:09.490Z,91523.25
2023-05-19T13:29:36.246Z,91522.97
2023-05-19T13:32:02.973Z,91523.69
2023-05-19T13:34:32.415Z,91511.97
2023-05-19T13:36:59.209Z,91514.84
2023-05-19T13:39:25.971Z,91513.66
2023-05-19T13:41:52.694Z,91514.06
2023-05-19T13:44:19.409Z,91509.94
2023-05-19T13:46:47.937Z,91506.94
2023-05-19T13:49:16.059Z,91495.28
2023-05-19T13:51:46.433Z,91501.06
2023-05-19T13:54:13.152Z,91504.09
2023-05-19T13:56:39.852Z,91494.09
2023-05-19T13:59:06.724Z,91491.06
2023-05-19T14:01:33.501Z,91494.56
2023-05-19T14:04:01.295Z,91480.41
2023-05-19T14:06:28.362Z,91485.41
2023-05-19T14:08:55.216Z,91482.47
2023-05-19T14:11:22.656Z,91471.72
2023-05-19T14:13:52.537Z,91480.63
2023-05-19T14:16:22.142Z,91474.69
2023-05-19T14:18:49.631Z,91483.81
2023-05-19T14:21:16.441Z,91492.66
2023-05-19T14:23:43.244Z,91489.13
2023-05-19T14:26:10.252Z,91481.53
2023-05-19T14:28:37.087Z,91484.13
2023-05-19T14:31:03.985Z,91497.16
2023-05-19T14:33:34.880Z,91487.03
2023-05-19T14:36:02.388Z,91491.53
2023-05-19T14:38:29.846Z,91488.78
2023-05-19T14:40:56.956Z,91484.38
2023-05-19T14:43:24.429Z,91492.00
2023-05-19T14:45:51.184Z,91494.34
2023-05-19T14:48:18.630Z,91494.50
2023-05-19T14:50:48.253Z,91486.50
2023-05-19T14:53:15.306Z,91491.00
2023-05-19T14:55:42.277Z,91494.66
2023-05-19T14:58:20.007Z,91502.00
2023-05-19T15:00:54.020Z,91504.94
2023-05-19T15:03:20.830Z,91519.56
2023-05-19T15:05:49.386Z,91527.03
2023-05-19T15:08:16.128Z,91533.31
2023-05-19T15:10:42.985Z,91542.34
2023-05-19T15:13:09.674Z,91550.50
2023-05-19T15:15:36.490Z,91553.44
2023-05-19T15:18:03.230Z,91552.50
2023-05-19T15:20:29.994Z,91561.75
2023-05-19T15:22:56.662Z,91565.63
2023-05-19T15:25:23.403Z,91574.78
2023-05-19T15:27:52.459Z,91578.66
2023-05-19T15:30:19.681Z,91581.31
2023-05-19T15:32:46.462Z,91586.94
2023-05-19T15:35:13.240Z,91596.03
2023-05-19T15:37:39.929Z,91600.00
2023-05-19T15:40:07.581Z,91606.91
2023-05-19T15:42:34.291Z,91620.47
2023-05-19T15:47:36.325Z,91622.09
2023-05-19T15:50:03.521Z,91627.53
2023-05-19T15:52:30.233Z,91597.41
2023-05-19T15:54:59.426Z,91631.00
2023-05-19T15:57:26.159Z,91632.13
2023-05-19T15:59:52.838Z,91638.56
2023-05-19T16:02:20.207Z,91637.13
2023-05-19T16:04:46.913Z,91644.94
2023-05-19T16:07:13.704Z,91645.69
2023-05-19T16:09:40.469Z,91644.94
2023-05-19T16:12:07.468Z,91639.00
2023-05-19T16:14:36.672Z,91639.69
2023-05-19T16:17:04.975Z,91632.13
2023-05-19T16:19:31.820Z,91632.19
2023-05-19T16:21:58.609Z,91629.91
2023-05-19T16:24:25.358Z,91637.41
2023-05-19T16:26:53.753Z,91639.69
2023-05-19T16:29:20.861Z,91639.38
2023-05-19T16:31:47.909Z,91639.69
2023-05-19T16:34:14.711Z,91642.31
2023-05-19T16:36:41.480Z,91640.44
2023-05-19T16:39:08.186Z,91640.47
2023-05-19T16:41:34.931Z,91612.66
2023-05-19T16:44:02.484Z,91633.72
2023-05-19T16:46:31.188Z,91637.03
2023-05-19T16:48:58.337Z,91641.19
2023-05-19T16:51:25.070Z,91636.66
2023-05-19T16:53:51.843Z,91635.88
2023-05-19T16:56:18.634Z,91638.09
2023-05-19T16:58:45.466Z,91625.66
2023-05-19T17:01:12.297Z,91629.78
2023-05-19T17:03:39.026Z,91634.34
2023-05-19T17:06:05.986Z,91625.34
2023-05-19T17:08:32.741Z,91635.91
2023-05-19T17:10:59.399Z,91638.94
2023-05-19T17:13:28.345Z,91638.56
2023-05-19T17:15:55.236Z,91644.94
2023-05-19T17:18:21.942Z,91650.22
2023-05-19T17:20:49.784Z,91638.69
2023-05-19T17:23:17.025Z,91634.56
2023-05-19T17:25:44.353Z,91624.75
2023-05-19T17:28:11.158Z,91620.97
2023-05-19T17:30:42.406Z,91620.56
2023-05-19T17:33:09.214Z,91626.63
2023-05-19T17:35:35.965Z,91630.00
2023-05-19T17:38:02.644Z,91623.25
2023-05-19T17:40:29.636Z,91619.06
2023-05-19T17:42:56.345Z,91618.34
2023-05-19T17:45:23.143Z,91620.22
2023-05-19T17:47:49.850Z,91602.16
2023-05-19T17:50:16.692Z,91631.19
2023-05-19T17:52:43.891Z,91621.78
2023-05-19T17:55:12.180Z,91628.94
2023-05-19T17:57:42.425Z,91629.69
2023-05-19T18:00:10.582Z,91626.69
2023-05-19T18:02:38.178Z,91628.94
2023-05-19T18:05:05.499Z,91639.09
2023-05-19T18:07:33.069Z,91639.09
2023-05-19T18:10:01.650Z,91637.59
2023-05-19T18:12:28.363Z,91635.25
2023-05-19T18:14:55.529Z,91641.72
2023-05-19T18:17:22.268Z,91631.94
2023-05-19T18:19:49.499Z,91643.91
2023-05-19T18:22:17.674Z,91639.84
2023-05-19T18:24:44.438Z,91633.06
2023-05-19T18:27:11.166Z,91644.38
2023-05-19T18:29:38.134Z,91639.84
2023-05-19T18:32:05.293Z,91640.59
2023-05-19T18:34:32.092Z,91639.06
2023-05-19T18:36:58.801Z,91633.81
2023-05-19T18:39:27.155Z,91636.41
2023-05-19T18:41:55.484Z,91644.66
2023-05-19T18:44:22.914Z,91642.06
2023-05-19T18:46:49.626Z,91652.22
2023-05-19T18:49:16.419Z,91649.97
2023-05-19T18:51:43.517Z,91650.31
2023-05-19T18:54:10.295Z,91652.56
2023-05-19T18:56:37.100Z,91655.19
2023-05-19T18:59:03.908Z,91657.38
2023-05-19T19:01:30.776Z,91652.47
2023-05-19T19:03:57.505Z,91660.31
2023-05-19T19:06:24.272Z,91659.97
2023-05-19T19:08:51.470Z,91664.16
2023-05-19T19:11:18.201Z,91662.53
2023-05-19T19:13:44.971Z,91670.06
2023-05-19T19:16:12.073Z,91655.34
2023-05-19T19:18:38.913Z,91662.34
2023-05-19T19:21:06.021Z,91670.00
2023-05-19T19:23:33.181Z,91666.94
2023-05-19T19:26:00.433Z,91667.59
2023-05-19T19:28:27.644Z,91671.09
2023-05-19T19:30:54.520Z,91676.22
2023-05-19T19:33:21.332Z,91673.25
2023-05-19T19:35:48.194Z,91671.72
2023-05-19T19:38:14.937Z,91676.31
2023-05-19T19:40:41.707Z,91691.03
2023-05-19T19:43:08.495Z,91680.75
2023-05-19T19:45:36.452Z,91687.84
2023-05-19T19:48:03.258Z,91681.34
2023-05-19T19:50:30.053Z,91685.91
2023-05-19T19:52:56.726Z,91685.09
2023-05-19T19:55:23.422Z,91679.91
2023-05-19T19:57:51.784Z,91685.16
2023-05-19T20:00:18.901Z,91685.81
2023-05-19T20:03:02.851Z,91679.28
2023-05-19T20:05:30.908Z,91679.16
2023-05-19T20:07:57.589Z,91687.06
2023-05-19T20:10:24.254Z,91676.88
2023-05-19T20:12:51.321Z,91666.78
2023-05-19T20:15:18.117Z,91681.81
2023-05-19T20:17:44.879Z,91682.56
2023-05-19T20:20:12.392Z,91687.03
2023-05-19T20:22:40.159Z,91679.28
2023-05-19T20:25:07.423Z,91679.06
2023-05-19T20:27:34.298Z,91679.56
2023-05-19T20:30:02.736Z,91671.78
2023-05-19T20:32:29.419Z,91670.47
2023-05-19T20:34:56.647Z,91670.63
2023-05-19T20:37:23.417Z,91665.81
2023-05-19T20:39:50.146Z,91668.78
2023-05-19T20:42:16.939Z,91674.88
2023-05-19T20:44:43.811Z,91669.16
2023-05-19T20:47:10.678Z,91662.84
2023-05-19T20:49:37.528Z,91663.22
2023-05-19T20:52:04.958Z,91674.56
2023-05-19T20:54:31.666Z,91671.50
2023-05-19T20:56:58.405Z,91666.22
2023-05-19T20:59:25.078Z,91665.75
2023-05-19T21:01:51.756Z,91666.47
2023-05-19T21:04:18.762Z,91669.44
2023-05-19T21:06:45.821Z,91658.72
2023-05-19T21:09:12.592Z,91671.06
2023-05-19T21:11:39.469Z,91636.03
2023-05-19T21:14:08.058Z,91621.97
2023-05-19T21:16:38.733Z,91656.38
2023-05-19T21:19:06.760Z,91666.50
2023-05-19T21:21:34.121Z,91668.41
2023-05-19T21:24:00.952Z,91672.06
2023-05-19T21:26:30.176Z,91665.97
2023-05-19T21:28:57.348Z,91672.38
2023-05-19T21:31:25.569Z,91673.50
2023-05-19T21:33:52.366Z,91676.44
2023-05-19T21:36:19.090Z,91679.28
2023-05-19T21:38:46.126Z,91679.13
2023-05-19T21:41:12.849Z,91672.31
2023-05-19T21:43:41.222Z,91667.44
2023-05-19T21:46:08.307Z,91668.19
2023-05-19T21:48:36.026Z,91673.50
2023-05-19T21:51:03.012Z,91676.41
2023-05-19T21:53:29.770Z,91659.78
2023-05-19T21:55:56.654Z,91668.16
2023-05-19T21:58:24.140Z,91667.34
2023-05-19T22:00:52.721Z,91667.44
2023-05-19T22:03:19.741Z,91664.44
2023-05-19T22:05:50.529Z,91654.59
2023-05-19T22:08:18.334Z,91654.78
2023-05-19T22:10:45.164Z,91652.00
2023-05-19T22:13:11.979Z,91654.03
2023-05-19T22:15:39.334Z,91662.28
2023-05-19T22:18:07.062Z,91654.06
2023-05-19T22:20:34.349Z,91647.69
2023-05-19T22:23:01.777Z,91649.09
2023-05-19T22:25:28.510Z,91656.28
2023-05-19T22:27:55.850Z,91651.19
2023-05-19T22:30:23.064Z,91652.00
2023-05-19T22:32:52.010Z,91638.50
2023-05-19T22:35:19.191Z,91636.94
2023-05-19T22:37:45.871Z,91648.44
2023-05-19T22:40:12.822Z,91645.81
2023-05-19T22:42:39.470Z,91639.38
2023-05-19T22:45:06.626Z,91645.88
2023-05-19T22:47:33.415Z,91630.63
2023-05-19T22:50:00.182Z,91641.06
2023-05-19T22:52:27.146Z,91636.47
2023-05-19T22:54:53.946Z,91643.09
2023-05-19T22:57:20.715Z,91635.72
2023-05-19T22:59:47.462Z,91634.88
2023-05-19T23:02:16.146Z,91639.44
2023-05-19T23:04:42.890Z,91641.94
2023-05-19T23:07:09.601Z,91624.19
2023-05-19T23:09:36.490Z,91634.66
2023-05-19T23:12:03.268Z,91631.28
2023-05-19T23:14:29.972Z,91622.72
2023-05-19T23:16:56.740Z,91593.75
2023-05-19T23:19:23.634Z,91619.94
2023-05-19T23:21:50.471Z,91614.28
2023-05-19T23:24:17.220Z,91605.06
2023-05-19T23:26:44.391Z,91604.34
2023-05-19T23:29:13.072Z,91605.91
2023-05-19T23:31:43.434Z,91605.66
2023-05-19T23:34:10.473Z,91597.38
2023-05-19T23:36:37.238Z,91601.66
2023-05-19T23:39:04.004Z,91604.81
2023-05-19T23:41:31.527Z,91609.66
2023-05-19T23:43:58.281Z,91605.22
2023-05-19T23:46:25.097Z,91604.09
2023-05-19T23:48:51.839Z,91602.91
2023-05-19T23:51:18.678Z,91593.69
2023-05-19T23:53:45.632Z,91598.63
2023-05-19T23:56:12.268Z,91597.03
2023-05-19T23:58:39.022Z,91595.84
